Time;durP1;ratioP1;P1;durP2;ratioP2;P2;SDS_P1;SDS_P2;PMS_P1;PMS_P2;Temp;Humidity;BMP_temperature;BMP_pressure;BME280_temperature;BME280_humidity;BME280_pressure;Samples;Min_cycle;Max_cycle;Signal;HPM_P1;HPM_P2
2022/01/03 00:00:47;;;;;;;0.68;0.20;;;10.60;99.90;;;;;;5114632;28;20096;-67
2022/01/03 00:03:15;;;;;;;1.95;0.15;;;10.70;99.90;;;;;;5133129;27;20030;-66
2022/01/03 00:05:41;;;;;;;0.98;0.40;;;10.70;99.90;;;;;;5122519;27;20028;-67
2022/01/03 00:08:07;;;;;;;2.50;0.40;;;10.70;99.90;;;;;;5128266;27;20019;-66
2022/01/03 00:10:35;;;;;;;3.03;0.47;;;10.80;99.90;;;;;;5133868;27;20030;-70
2022/01/03 00:13:02;;;;;;;3.33;0.95;;;10.80;99.90;;;;;;5130920;27;20073;-65
2022/01/03 00:15:27;;;;;;;2.05;0.45;;;10.80;99.90;;;;;;5113157;27;20114;-68
2022/01/03 00:17:53;;;;;;;2.88;0.50;;;10.80;99.90;;;;;;5113159;28;20190;-67
2022/01/03 00:20:20;;;;;;;3.47;0.70;;;10.90;99.90;;;;;;5112589;28;20058;-66
2022/01/03 00:22:51;;;;;;;2.13;1.20;;;10.90;99.90;;;;;;5113927;28;20026;-68
2022/01/03 00:25:20;;;;;;;3.20;1.13;;;10.90;99.90;;;;;;5112997;28;20035;-68
2022/01/03 00:28:05;;;;;;;2.95;1.10;;;10.90;99.90;;;;;;5113611;28;20057;-68
2022/01/03 00:30:35;;;;;;;5.40;1.88;;;10.90;99.90;;;;;;5112712;28;20118;-68
2022/01/03 00:33:02;;;;;;;2.60;1.00;;;11.00;99.90;;;;;;5114301;28;20066;-68
2022/01/03 00:35:28;;;;;;;5.45;2.25;;;11.00;99.90;;;;;;5112753;28;20034;-68
2022/01/03 00:37:56;;;;;;;5.70;1.25;;;10.90;99.90;;;;;;5113289;28;20229;-69
2022/01/03 00:40:22;;;;;;;2.47;1.02;;;10.90;99.90;;;;;;5115161;28;20131;-68
2022/01/03 00:42:49;;;;;;;7.43;1.52;;;10.90;99.90;;;;;;5114154;28;20030;-68
2022/01/03 00:45:14;;;;;;;5.57;1.10;;;11.00;99.90;;;;;;5112674;28;20356;-68
2022/01/03 00:47:40;;;;;;;2.28;1.08;;;11.00;99.90;;;;;;5111994;28;20024;-68
2022/01/03 00:50:10;;;;;;;3.17;0.90;;;11.00;99.90;;;;;;5113937;28;20043;-68
2022/01/03 00:52:36;;;;;;;6.30;1.30;;;11.00;99.90;;;;;;5112108;28;20377;-67
2022/01/03 00:55:04;;;;;;;5.57;1.20;;;11.10;99.90;;;;;;5113543;28;20024;-66
2022/01/03 00:57:56;;;;;;;5.32;0.80;;;11.10;99.90;;;;;;5112520;28;20411;-66
2022/01/03 01:00:22;;;;;;;7.80;1.75;;;11.10;99.90;;;;;;5114041;28;20055;-68
2022/01/03 01:03:15;;;;;;;4.10;1.17;;;11.10;99.90;;;;;;5116433;28;20357;-69
2022/01/03 01:05:47;;;;;;;3.92;1.10;;;11.20;99.90;;;;;;5117056;28;20076;-68
2022/01/03 01:08:26;;;;;;;4.53;1.25;;;11.10;99.90;;;;;;5116169;27;20099;-67
2022/01/03 01:10:52;;;;;;;3.33;1.35;;;11.10;99.90;;;;;;5113465;28;20035;-69
2022/01/03 01:13:19;;;;;;;6.05;1.73;;;11.10;99.90;;;;;;5113699;28;20035;-70
2022/01/03 01:15:45;;;;;;;8.48;1.60;;;11.10;99.90;;;;;;5111609;28;20118;-69
2022/01/03 01:18:11;;;;;;;5.20;1.05;;;11.10;99.90;;;;;;5113505;28;20059;-71
2022/01/03 01:20:39;;;;;;;4.55;1.00;;;11.10;99.90;;;;;;5112469;28;20047;-72
2022/01/03 01:23:06;;;;;;;4.13;1.08;;;11.10;99.90;;;;;;5112157;28;20034;-68
2022/01/03 01:28:04;;;;;;;3.15;0.90;;;11.10;99.90;;;;;;5115800;28;20012;-68
2022/01/03 01:30:30;;;;;;;3.28;0.52;;;11.10;99.90;;;;;;5114113;28;20142;-69
2022/01/03 01:33:14;;;;;;;2.90;0.60;;;11.10;99.90;;;;;;5112499;28;20030;-68
2022/01/03 01:35:55;;;;;;;7.03;1.95;;;11.00;99.90;;;;;;5112909;28;20081;-68
2022/01/03 01:38:28;;;;;;;2.90;0.50;;;11.10;99.90;;;;;;5113587;28;20019;-66
2022/01/03 01:40:56;;;;;;;4.90;0.68;;;11.00;99.90;;;;;;5111278;28;20289;-67
2022/01/03 01:43:39;;;;;;;6.03;0.65;;;11.00;99.90;;;;;;5112155;28;20073;-68
2022/01/03 01:46:09;;;;;;;4.38;0.90;;;11.00;99.90;;;;;;5114045;27;20023;-68
2022/01/03 01:48:37;;;;;;;3.95;0.65;;;11.00;99.90;;;;;;5112336;28;20023;-67
2022/01/03 01:51:05;;;;;;;4.28;0.52;;;11.00;99.90;;;;;;5112524;28;20031;-72
2022/01/03 01:53:31;;;;;;;3.65;0.90;;;11.00;99.90;;;;;;5115194;28;20027;-68
2022/01/03 01:55:58;;;;;;;4.40;0.75;;;11.00;99.90;;;;;;5113456;28;20023;-68
2022/01/03 01:58:36;;;;;;;1.83;0.60;;;11.00;99.90;;;;;;5114152;28;20055;-67
2022/01/03 02:01:05;;;;;;;3.25;0.50;;;11.10;99.90;;;;;;5113198;28;20024;-68
2022/01/03 02:04:02;;;;;;;4.30;1.33;;;11.10;99.90;;;;;;5113321;28;20026;-69
2022/01/03 02:06:43;;;;;;;5.95;1.20;;;11.10;99.90;;;;;;5112748;28;20381;-68
2022/01/03 02:09:16;;;;;;;7.80;0.60;;;11.00;99.90;;;;;;5112588;28;20020;-71
2022/01/03 02:11:56;;;;;;;5.15;0.52;;;11.00;99.90;;;;;;5111893;28;20314;-66
2022/01/03 02:14:24;;;;;;;3.53;0.60;;;10.90;99.90;;;;;;5112920;28;20028;-67
2022/01/03 02:16:51;;;;;;;4.13;0.70;;;10.90;99.90;;;;;;5110910;28;20349;-66
2022/01/03 02:19:19;;;;;;;3.63;0.63;;;10.90;99.90;;;;;;5122705;27;20043;-70
2022/01/03 02:21:45;;;;;;;7.40;0.60;;;10.90;99.90;;;;;;5110269;28;20056;-67
2022/01/03 02:24:11;;;;;;;2.95;0.80;;;10.80;99.90;;;;;;5111427;28;20063;-69
2022/01/03 02:26:37;;;;;;;5.32;1.27;;;10.80;99.90;;;;;;5111313;28;20062;-66
2022/01/03 02:29:04;;;;;;;5.30;0.60;;;10.70;99.90;;;;;;5112055;28;20100;-68
2022/01/03 02:31:31;;;;;;;3.08;0.60;;;10.70;99.90;;;;;;5111179;28;20417;-67
2022/01/03 02:34:00;;;;;;;11.00;1.10;;;10.70;99.90;;;;;;5112063;28;20469;-67
2022/01/03 02:36:26;;;;;;;4.90;0.63;;;10.60;99.90;;;;;;5112903;28;20034;-70
2022/01/03 02:38:51;;;;;;;3.67;0.70;;;10.60;99.90;;;;;;5112382;28;20067;-66
2022/01/03 02:41:17;;;;;;;7.40;1.35;;;10.60;99.90;;;;;;5112447;28;20035;-69
2022/01/03 02:43:43;;;;;;;3.88;1.00;;;10.60;99.90;;;;;;5115947;28;20159;-67
2022/01/03 02:46:09;;;;;;;5.13;1.42;;;10.50;99.90;;;;;;5116282;28;20020;-67
2022/01/03 02:48:35;;;;;;;2.83;0.70;;;10.50;99.90;;;;;;5115506;28;20062;-66
2022/01/03 02:51:01;;;;;;;6.32;1.08;;;10.50;99.90;;;;;;5115456;27;20101;-67
2022/01/03 02:53:27;;;;;;;5.72;0.88;;;10.50;99.90;;;;;;5115084;28;20040;-66
2022/01/03 02:55:53;;;;;;;5.97;1.10;;;10.40;99.90;;;;;;5114537;28;20020;-67
2022/01/03 02:58:18;;;;;;;9.13;0.98;;;10.50;99.90;;;;;;5116078;28;20099;-68
2022/01/03 03:00:50;;;;;;;6.20;0.80;;;10.40;99.90;;;;;;5115190;28;20105;-68
2022/01/03 03:03:17;;;;;;;3.20;0.73;;;10.40;99.90;;;;;;5114837;28;20051;-73
2022/01/03 03:05:44;;;;;;;4.13;0.98;;;10.40;99.90;;;;;;5116386;28;20114;-70
2022/01/03 03:08:11;;;;;;;6.18;0.63;;;10.40;99.90;;;;;;5116243;28;20444;-66
2022/01/03 03:10:38;;;;;;;4.68;0.90;;;10.40;99.90;;;;;;5117132;28;20449;-66
2022/01/03 03:13:04;;;;;;;6.10;0.98;;;10.40;99.90;;;;;;5114138;28;20274;-66
2022/01/03 03:15:30;;;;;;;8.90;1.15;;;10.40;99.90;;;;;;5116141;28;20051;-70
2022/01/03 03:17:56;;;;;;;9.85;1.10;;;10.40;99.90;;;;;;5115497;28;20034;-67
2022/01/03 03:20:27;;;;;;;5.80;1.40;;;10.30;99.90;;;;;;5115345;28;20052;-66
2022/01/03 03:22:54;;;;;;;6.45;1.08;;;10.40;99.90;;;;;;5113817;28;20115;-66
2022/01/03 03:25:34;;;;;;;8.10;1.02;;;10.30;99.90;;;;;;5115692;28;20364;-67
2022/01/03 03:28:04;;;;;;;9.18;1.05;;;10.40;99.90;;;;;;5115318;28;20035;-67
2022/01/03 03:30:34;;;;;;;6.07;0.95;;;10.30;99.90;;;;;;5116029;28;20024;-67
2022/01/03 03:33:06;;;;;;;6.72;1.33;;;10.40;99.90;;;;;;5115180;27;20024;-66
2022/01/03 03:35:32;;;;;;;4.57;1.13;;;10.30;99.90;;;;;;5115725;27;20016;-65
2022/01/03 03:37:58;;;;;;;7.57;1.00;;;10.40;99.90;;;;;;5113670;28;20106;-67
2022/01/03 03:40:23;;;;;;;11.55;0.90;;;10.40;99.90;;;;;;5115326;28;20425;-68
2022/01/03 03:42:49;;;;;;;9.18;1.40;;;10.40;99.90;;;;;;5113507;28;20044;-67
2022/01/03 03:45:15;;;;;;;8.90;1.20;;;10.30;99.90;;;;;;5115626;28;20397;-67
2022/01/03 03:47:41;;;;;;;9.25;2.05;;;10.30;99.90;;;;;;5116853;28;20419;-68
2022/01/03 03:50:07;;;;;;;8.55;1.63;;;10.30;99.90;;;;;;5114564;28;20075;-66
2022/01/03 03:52:33;;;;;;;8.98;1.52;;;10.40;99.90;;;;;;5115072;28;20028;-67
2022/01/03 03:54:59;;;;;;;4.90;0.90;;;10.30;99.90;;;;;;5113402;28;20081;-66
2022/01/03 03:57:25;;;;;;;7.03;1.00;;;10.50;99.90;;;;;;5115553;28;20126;-67
2022/01/03 03:59:50;;;;;;;12.38;1.30;;;10.40;99.90;;;;;;5114516;28;20501;-67
2022/01/03 04:02:16;;;;;;;15.98;1.67;;;10.40;99.90;;;;;;5115149;28;20026;-65
2022/01/03 04:04:41;;;;;;;6.63;1.05;;;10.50;99.90;;;;;;5096725;28;20026;-67
2022/01/03 04:07:07;;;;;;;6.45;0.90;;;10.50;99.90;;;;;;5114306;28;20039;-68
2022/01/03 04:09:33;;;;;;;8.77;1.85;;;10.50;99.90;;;;;;5115140;28;20023;-66
2022/01/03 04:11:59;;;;;;;7.00;0.80;;;10.40;99.90;;;;;;5113143;28;20027;-65
2022/01/03 04:14:25;;;;;;;4.13;0.60;;;10.50;99.90;;;;;;5113740;28;20479;-66
2022/01/03 04:16:51;;;;;;;5.60;0.88;;;10.50;99.90;;;;;;5114828;28;20096;-66
2022/01/03 04:19:16;;;;;;;6.43;1.08;;;10.40;99.90;;;;;;5114604;28;20538;-66
2022/01/03 04:21:42;;;;;;;5.10;0.98;;;10.40;99.90;;;;;;5113010;28;20052;-66
2022/01/03 04:24:10;;;;;;;5.43;1.60;;;10.40;99.90;;;;;;5113977;28;20399;-66
2022/01/03 04:26:38;;;;;;;11.15;1.05;;;10.30;99.90;;;;;;5114383;28;20020;-67
2022/01/03 04:29:05;;;;;;;7.38;0.93;;;10.30;99.90;;;;;;5113870;28;20465;-66
2022/01/03 04:31:30;;;;;;;4.75;0.63;;;10.30;99.90;;;;;;5114733;28;20063;-66
2022/01/03 04:33:57;;;;;;;5.00;1.00;;;10.30;99.90;;;;;;5113741;28;20054;-66
2022/01/03 04:36:24;;;;;;;6.38;0.75;;;10.20;99.90;;;;;;5113321;28;20449;-67
2022/01/03 04:38:50;;;;;;;4.78;0.57;;;10.20;99.90;;;;;;5113626;28;20354;-66
2022/01/03 04:41:15;;;;;;;5.10;0.75;;;10.20;99.90;;;;;;5112625;28;20035;-67
2022/01/03 04:43:41;;;;;;;2.75;0.47;;;10.20;99.90;;;;;;5112879;28;20027;-66
2022/01/03 04:46:11;;;;;;;5.95;0.70;;;10.20;99.90;;;;;;5113805;28;20019;-65
2022/01/03 04:48:38;;;;;;;1.90;0.90;;;10.20;99.90;;;;;;5113702;28;20023;-66
2022/01/03 04:51:05;;;;;;;3.85;0.40;;;10.20;99.90;;;;;;5113832;28;20036;-66
2022/01/03 04:53:33;;;;;;;3.65;0.47;;;10.20;99.90;;;;;;5112901;28;20333;-65
2022/01/03 04:55:58;;;;;;;2.35;0.40;;;10.10;99.90;;;;;;5113013;28;20055;-65
2022/01/03 04:58:24;;;;;;;3.20;0.30;;;10.10;99.90;;;;;;5113610;28;20477;-66
2022/01/03 05:00:51;;;;;;;1.58;0.22;;;10.20;99.90;;;;;;5111822;28;20477;-66
2022/01/03 05:03:17;;;;;;;2.60;0.25;;;10.20;99.90;;;;;;5113692;28;20027;-66
2022/01/03 05:05:42;;;;;;;2.97;0.40;;;10.20;99.90;;;;;;5112930;28;20043;-65
2022/01/03 05:08:08;;;;;;;4.78;0.60;;;10.20;99.90;;;;;;5112813;28;20028;-71
2022/01/03 05:10:34;;;;;;;5.93;1.38;;;10.20;99.90;;;;;;5114154;28;20058;-69
2022/01/03 05:13:00;;;;;;;3.35;0.80;;;10.20;99.90;;;;;;5112114;28;20051;-66
2022/01/03 05:15:26;;;;;;;1.98;0.10;;;10.20;99.90;;;;;;5113990;28;20019;-65
2022/01/03 05:17:52;;;;;;;2.75;0.25;;;10.10;99.90;;;;;;5111781;28;20461;-66
2022/01/03 05:20:18;;;;;;;2.45;0.35;;;10.20;99.90;;;;;;5113125;28;20472;-65
2022/01/03 05:22:44;;;;;;;2.20;0.32;;;10.20;99.90;;;;;;5113841;28;20061;-66
2022/01/03 05:25:10;;;;;;;3.22;0.55;;;10.10;99.90;;;;;;5113941;28;20035;-65
2022/01/03 05:27:37;;;;;;;3.38;0.50;;;10.10;99.90;;;;;;5114200;28;20027;-73
2022/01/03 05:30:04;;;;;;;3.33;0.38;;;10.10;99.90;;;;;;5114428;28;20027;-65
2022/01/03 05:32:30;;;;;;;3.85;0.47;;;10.10;99.90;;;;;;5114694;28;20091;-69
2022/01/03 05:34:55;;;;;;;3.70;0.28;;;10.10;99.90;;;;;;5111581;28;20453;-65
2022/01/03 05:37:21;;;;;;;2.58;0.30;;;10.10;99.90;;;;;;5113323;28;20038;-65
2022/01/03 05:39:47;;;;;;;6.55;0.43;;;10.10;99.90;;;;;;5111745;28;20020;-66
2022/01/03 05:42:12;;;;;;;5.28;0.60;;;10.10;99.90;;;;;;5112359;28;20096;-66
2022/01/03 05:44:38;;;;;;;3.63;0.40;;;10.00;99.90;;;;;;5112758;28;20023;-65
2022/01/03 05:47:04;;;;;;;3.28;0.90;;;10.00;99.90;;;;;;5110608;28;20023;-65
2022/01/03 05:49:30;;;;;;;2.67;0.73;;;10.10;99.90;;;;;;5113086;28;20029;-66
2022/01/03 05:51:55;;;;;;;6.28;0.55;;;10.00;99.90;;;;;;5111819;28;20059;-65
2022/01/03 05:54:21;;;;;;;2.10;0.47;;;10.10;99.90;;;;;;5112437;28;20027;-66
2022/01/03 05:56:47;;;;;;;5.22;1.13;;;10.10;99.90;;;;;;5112724;28;20027;-67
2022/01/03 05:59:12;;;;;;;2.95;0.68;;;10.10;99.90;;;;;;5111674;28;20747;-66
2022/01/03 06:01:39;;;;;;;4.55;0.55;;;10.10;99.90;;;;;;5112452;28;20028;-67
2022/01/03 06:04:22;;;;;;;5.35;0.90;;;10.10;99.90;;;;;;5111948;28;20372;-65
2022/01/03 06:07:01;;;;;;;3.70;0.40;;;10.10;99.90;;;;;;5111248;28;20028;-66
2022/01/03 06:09:26;;;;;;;3.75;1.05;;;10.10;99.90;;;;;;5111380;28;20028;-67
2022/01/03 06:11:53;;;;;;;4.82;0.65;;;10.10;99.90;;;;;;5112359;28;20036;-66
2022/01/03 06:14:20;;;;;;;8.05;0.73;;;10.00;99.90;;;;;;5110554;28;20020;-66
2022/01/03 06:16:48;;;;;;;5.20;0.80;;;10.00;99.90;;;;;;5111011;28;20023;-64
2022/01/03 06:19:14;;;;;;;5.03;0.88;;;10.00;99.90;;;;;;5111961;28;20032;-66
2022/01/03 06:21:41;;;;;;;4.78;0.82;;;10.00;99.90;;;;;;5110757;28;20075;-68
2022/01/03 06:24:15;;;;;;;2.88;0.60;;;10.00;99.90;;;;;;5111992;28;20102;-67
2022/01/03 06:26:43;;;;;;;3.00;0.45;;;10.00;99.90;;;;;;5111527;28;20024;-64
2022/01/03 06:29:10;;;;;;;3.00;1.08;;;9.90;99.90;;;;;;5110586;28;20377;-65
2022/01/03 06:31:36;;;;;;;5.28;0.73;;;9.90;99.90;;;;;;5112872;28;20035;-70
2022/01/03 06:34:03;;;;;;;6.15;1.33;;;9.90;99.90;;;;;;5111776;28;20457;-70
2022/01/03 06:36:29;;;;;;;7.93;1.08;;;9.90;99.90;;;;;;5112225;28;20027;-67
2022/01/03 06:38:56;;;;;;;3.55;0.40;;;9.80;99.90;;;;;;5111905;28;20035;-66
2022/01/03 06:41:23;;;;;;;6.53;1.00;;;9.80;99.90;;;;;;5110760;28;20028;-65
2022/01/03 06:43:48;;;;;;;2.40;0.40;;;9.70;99.90;;;;;;5112194;28;20020;-66
2022/01/03 06:46:14;;;;;;;5.75;1.08;;;9.80;99.90;;;;;;5111905;28;20393;-66
2022/01/03 06:48:40;;;;;;;1.88;0.47;;;9.80;99.90;;;;;;5114668;28;20381;-68
2022/01/03 06:51:06;;;;;;;3.50;0.55;;;9.80;99.90;;;;;;5111755;28;20560;-67
2022/01/03 06:53:31;;;;;;;1.65;0.40;;;9.80;99.90;;;;;;5112580;28;20031;-66
2022/01/03 06:55:58;;;;;;;4.88;0.70;;;9.80;99.90;;;;;;5111592;28;20114;-71
2022/01/03 06:58:24;;;;;;;5.78;0.65;;;9.70;99.90;;;;;;5112065;28;20024;-66
2022/01/03 07:00:50;;;;;;;2.65;0.63;;;9.70;99.90;;;;;;5110297;28;20027;-67
2022/01/03 07:03:15;;;;;;;3.60;0.60;;;9.80;99.90;;;;;;5111014;28;20064;-66
2022/01/03 07:05:41;;;;;;;6.15;1.48;;;9.80;99.90;;;;;;5111819;28;20055;-68
2022/01/03 07:08:07;;;;;;;2.28;0.57;;;9.80;99.90;;;;;;5111277;28;20365;-68
2022/01/03 07:10:33;;;;;;;9.02;3.22;;;9.80;99.90;;;;;;5111946;28;20028;-71
2022/01/03 07:13:00;;;;;;;3.05;0.55;;;9.80;99.90;;;;;;5109894;28;20457;-69
2022/01/03 07:21:05;;;;;;;10.38;1.10;;;9.70;99.90;;;;;;5111806;28;20071;-67
2022/01/03 07:23:31;;;;;;;3.60;0.82;;;9.70;99.90;;;;;;5112294;28;20329;-68
2022/01/03 07:25:56;;;;;;;3.97;0.90;;;9.60;99.90;;;;;;5111334;28;20020;-66
2022/01/03 07:28:22;;;;;;;8.93;1.40;;;9.70;99.90;;;;;;5112592;28;20031;-67
2022/01/03 07:30:48;;;;;;;5.07;0.75;;;9.70;99.90;;;;;;5115418;28;20030;-70
2022/01/03 07:33:13;;;;;;;5.35;0.90;;;9.60;99.90;;;;;;5113605;28;20373;-65
2022/01/03 07:35:39;;;;;;;4.80;0.80;;;9.70;99.90;;;;;;5115500;28;20049;-68
2022/01/03 07:38:05;;;;;;;5.72;0.80;;;9.70;99.90;;;;;;5114655;28;20333;-68
2022/01/03 07:40:31;;;;;;;8.85;1.00;;;9.70;99.90;;;;;;5115157;28;20035;-67
2022/01/03 07:42:58;;;;;;;5.28;0.93;;;9.60;99.90;;;;;;5115036;28;20167;-66
2022/01/03 07:45:23;;;;;;;7.60;0.57;;;9.60;99.90;;;;;;5113184;28;20024;-69
2022/01/03 07:47:49;;;;;;;5.63;1.15;;;9.60;99.90;;;;;;5114834;28;20047;-68
2022/01/03 07:50:15;;;;;;;4.40;0.60;;;9.60;99.90;;;;;;5114435;28;20050;-68
2022/01/03 07:52:41;;;;;;;4.53;0.80;;;9.60;99.90;;;;;;5114869;28;20446;-66
2022/01/03 07:55:09;;;;;;;5.60;1.67;;;9.60;99.90;;;;;;5113863;28;20551;-66
2022/01/03 07:57:35;;;;;;;3.67;0.95;;;9.60;99.90;;;;;;5113730;28;20173;-68
2022/01/03 08:00:01;;;;;;;5.32;1.73;;;9.70;99.90;;;;;;5113053;28;20536;-69
2022/01/03 08:02:29;;;;;;;4.88;1.85;;;9.70;99.90;;;;;;5113785;28;20024;-67
2022/01/03 08:04:55;;;;;;;9.52;0.73;;;9.60;99.90;;;;;;5114736;28;20023;-66
2022/01/03 08:07:20;;;;;;;6.07;1.20;;;9.70;99.90;;;;;;5112482;28;20392;-67
2022/01/03 08:09:46;;;;;;;6.28;0.85;;;9.60;99.90;;;;;;5113325;28;20027;-66
2022/01/03 08:12:12;;;;;;;5.75;0.75;;;9.60;99.90;;;;;;5112692;28;20034;-72
2022/01/03 08:14:40;;;;;;;6.50;1.67;;;9.70;99.90;;;;;;5114467;28;20069;-66
2022/01/03 08:17:06;;;;;;;5.50;1.63;;;9.70;99.90;;;;;;5114308;28;20028;-67
2022/01/03 08:19:32;;;;;;;2.63;0.47;;;9.70;99.90;;;;;;5113063;28;20027;-68
2022/01/03 08:21:58;;;;;;;9.27;1.58;;;9.80;99.90;;;;;;5114424;28;20425;-68
2022/01/03 08:24:23;;;;;;;7.13;1.25;;;9.80;99.90;;;;;;5113156;28;20024;-69
2022/01/03 08:26:49;;;;;;;4.93;1.20;;;9.80;99.90;;;;;;5115613;28;20052;-69
2022/01/03 08:29:15;;;;;;;3.15;1.23;;;9.80;99.90;;;;;;5113812;28;20526;-72
2022/01/03 08:31:41;;;;;;;13.93;1.80;;;9.80;99.90;;;;;;5114781;28;20032;-68
2022/01/03 08:34:07;;;;;;;4.32;1.02;;;9.80;99.90;;;;;;5112452;28;20027;-65
2022/01/03 08:36:33;;;;;;;5.88;1.15;;;9.80;99.90;;;;;;5112933;28;20024;-67
2022/01/03 08:38:58;;;;;;;8.85;1.35;;;9.90;99.90;;;;;;5112777;28;20487;-68
2022/01/03 08:41:24;;;;;;;8.50;1.30;;;9.90;99.90;;;;;;5113420;28;20046;-66
2022/01/03 08:43:51;;;;;;;13.48;3.10;;;9.90;99.90;;;;;;5113825;28;20445;-66
2022/01/03 08:46:17;;;;;;;11.40;1.50;;;9.90;99.90;;;;;;5113139;28;20027;-69
2022/01/03 08:48:43;;;;;;;10.35;1.20;;;10.00;99.90;;;;;;5113825;28;20099;-68
2022/01/03 08:51:08;;;;;;;7.63;1.17;;;10.00;99.90;;;;;;5111819;28;20067;-67
2022/01/03 08:53:36;;;;;;;7.88;1.55;;;10.10;99.90;;;;;;5113831;28;20057;-70
2022/01/03 08:56:03;;;;;;;12.57;2.05;;;10.20;99.90;;;;;;5113197;28;20030;-67
2022/01/03 08:58:29;;;;;;;15.85;2.13;;;10.30;99.90;;;;;;5114350;28;20049;-66
2022/01/03 09:00:55;;;;;;;11.52;2.50;;;10.40;99.90;;;;;;5112715;28;20076;-68
2022/01/03 09:03:21;;;;;;;8.07;1.65;;;10.60;99.90;;;;;;5113414;28;20444;-68
2022/01/03 09:05:47;;;;;;;10.25;1.83;;;10.60;99.90;;;;;;5112951;28;20023;-68
2022/01/03 09:08:13;;;;;;;13.07;1.88;;;10.60;99.90;;;;;;5112457;28;20027;-69
2022/01/03 09:10:39;;;;;;;5.15;1.63;;;10.70;99.90;;;;;;5112597;28;20036;-68
2022/01/03 09:13:06;;;;;;;15.55;2.05;;;10.60;99.90;;;;;;5096603;28;20389;-72
2022/01/03 09:15:31;;;;;;;8.55;1.90;;;10.70;99.90;;;;;;5113260;28;20487;-68
2022/01/03 09:17:57;;;;;;;8.23;1.50;;;10.70;99.90;;;;;;5113740;28;20089;-68
2022/01/03 09:20:23;;;;;;;7.95;1.83;;;10.80;99.90;;;;;;5112293;28;20048;-69
2022/01/03 09:22:52;;;;;;;10.75;1.60;;;10.80;99.90;;;;;;5112253;28;20024;-67
2022/01/03 09:30:35;;;;;;;15.63;2.17;;;11.30;99.90;;;;;;5114164;28;20038;-69
2022/01/03 09:33:04;;;;;;;12.30;1.90;;;11.40;99.90;;;;;;5111747;28;20055;-69
2022/01/03 09:35:30;;;;;;;8.90;1.85;;;11.80;99.90;;;;;;5112499;28;20102;-66
2022/01/03 09:37:56;;;;;;;9.77;3.05;;;12.00;99.90;;;;;;5112936;28;20051;-69
2022/01/03 09:40:22;;;;;;;8.25;1.67;;;12.00;99.90;;;;;;5111228;28;20070;-68
2022/01/03 09:42:56;;;;;;;7.70;1.55;;;12.10;99.90;;;;;;5111461;28;20024;-69
2022/01/03 09:45:25;;;;;;;15.77;3.63;;;12.50;99.90;;;;;;5111664;28;20031;-68
2022/01/03 09:47:53;;;;;;;8.20;2.47;;;12.30;99.90;;;;;;5119675;27;20413;-67
2022/01/03 09:50:21;;;;;;;5.38;1.48;;;12.00;99.90;;;;;;5113519;27;20039;-66
2022/01/03 09:52:48;;;;;;;9.15;1.63;;;11.80;99.90;;;;;;5111349;27;20041;-64
2022/01/03 09:55:19;;;;;;;10.25;2.45;;;12.00;99.90;;;;;;5123083;27;20031;-68
2022/01/03 09:57:46;;;;;;;7.88;1.50;;;12.10;99.90;;;;;;5127146;27;20520;-67
2022/01/03 10:00:24;;;;;;;15.07;2.80;;;12.00;99.90;;;;;;5121329;27;20023;-73
2022/01/03 10:02:52;;;;;;;10.43;1.45;;;12.10;99.90;;;;;;5123450;27;20038;-68
2022/01/03 10:05:19;;;;;;;8.82;2.25;;;11.70;99.90;;;;;;5113127;27;20039;-68
2022/01/03 10:07:45;;;;;;;10.88;1.77;;;11.50;99.90;;;;;;5119001;27;20046;-68
2022/01/03 10:10:11;;;;;;;11.98;1.73;;;11.40;99.90;;;;;;5118343;27;20024;-68
2022/01/03 10:12:38;;;;;;;11.00;1.63;;;11.30;99.90;;;;;;5111595;27;20051;-67
2022/01/03 10:15:05;;;;;;;12.82;1.60;;;11.20;99.90;;;;;;5112222;28;20035;-66
2022/01/03 10:17:42;;;;;;;14.02;1.77;;;11.10;99.90;;;;;;5110209;28;20034;-67
2022/01/03 10:20:10;;;;;;;19.38;3.17;;;11.10;99.90;;;;;;5111797;28;20050;-69
2022/01/03 10:22:38;;;;;;;11.50;1.60;;;10.90;99.90;;;;;;5112638;28;20024;-66
2022/01/03 10:25:18;;;;;;;21.20;2.60;;;10.90;99.90;;;;;;5112008;28;20058;-67
2022/01/03 10:27:54;;;;;;;9.63;1.73;;;10.80;99.90;;;;;;5112181;28;20513;-66
2022/01/03 10:30:38;;;;;;;5.90;1.50;;;10.90;99.90;;;;;;5123935;28;20039;-66
2022/01/03 10:33:06;;;;;;;12.77;3.42;;;11.10;99.90;;;;;;5113579;28;20047;-69
2022/01/03 10:35:38;;;;;;;14.75;2.55;;;11.10;99.90;;;;;;5123170;28;20024;-68
2022/01/03 10:38:04;;;;;;;15.43;3.10;;;11.10;99.90;;;;;;5122530;28;20023;-68
2022/01/03 10:40:31;;;;;;;10.00;1.77;;;11.10;99.90;;;;;;5115902;28;20038;-66
2022/01/03 10:43:19;;;;;;;12.70;2.10;;;11.00;99.90;;;;;;5124194;28;20126;-66
2022/01/03 10:45:46;;;;;;;11.68;2.25;;;10.90;99.90;;;;;;5131512;28;20019;-68
2022/01/03 10:48:33;;;;;;;8.75;1.73;;;10.90;99.90;;;;;;5128555;28;20055;-69
2022/01/03 10:51:00;;;;;;;17.45;3.55;;;10.90;99.90;;;;;;5133326;27;20446;-67
2022/01/03 10:53:36;;;;;;;13.15;1.90;;;10.90;99.90;;;;;;5130581;28;20055;-66
2022/01/03 10:56:24;;;;;;;11.48;2.40;;;10.80;99.90;;;;;;5131101;28;20473;-65
2022/01/03 10:58:54;;;;;;;12.85;2.80;;;10.80;99.90;;;;;;5120019;27;20016;-65
2022/01/03 11:01:21;;;;;;;11.80;2.63;;;10.80;99.90;;;;;;5111676;28;20031;-67
2022/01/03 11:03:48;;;;;;;13.57;2.55;;;10.80;99.90;;;;;;5114633;28;20032;-66
2022/01/03 11:11:58;;;;;;;8.32;1.83;;;10.70;99.90;;;;;;5115673;28;20500;-66
2022/01/03 11:14:42;;;;;;;14.50;3.10;;;10.70;99.90;;;;;;5116243;27;20433;-66
2022/01/03 11:17:27;;;;;;;10.50;2.78;;;10.70;99.90;;;;;;5117672;27;20031;-67
2022/01/03 11:19:57;;;;;;;11.90;2.90;;;10.70;99.90;;;;;;5114699;28;20052;-66
2022/01/03 11:22:47;;;;;;;8.85;2.63;;;10.70;99.90;;;;;;5119116;27;20051;-66
2022/01/03 11:25:13;;;;;;;13.45;2.00;;;10.60;99.90;;;;;;5115452;27;20445;-65
2022/01/03 11:27:40;;;;;;;12.25;2.25;;;10.50;99.90;;;;;;5119011;27;20026;-66
2022/01/03 11:30:11;;;;;;;12.35;2.78;;;10.50;99.90;;;;;;5136126;27;20389;-65
2022/01/03 11:32:43;;;;;;;11.60;2.42;;;10.60;99.90;;;;;;5134174;27;20464;-66
2022/01/03 11:35:10;;;;;;;11.73;2.00;;;10.60;99.90;;;;;;5134680;27;20601;-67
2022/01/03 11:37:39;;;;;;;12.57;3.78;;;10.60;99.90;;;;;;5135005;27;20062;-70
2022/01/03 11:40:05;;;;;;;9.00;1.80;;;10.70;99.90;;;;;;5130404;27;20054;-67
2022/01/03 11:42:36;;;;;;;19.27;2.70;;;10.70;99.90;;;;;;5119773;27;20032;-67
2022/01/03 11:45:02;;;;;;;14.35;2.40;;;10.70;99.90;;;;;;5129042;27;20073;-68
2022/01/03 11:47:28;;;;;;;14.73;2.90;;;10.70;99.90;;;;;;5127284;27;20015;-66
2022/01/03 11:49:54;;;;;;;17.08;3.08;;;10.70;99.90;;;;;;5123163;27;20084;-67
2022/01/03 11:52:21;;;;;;;12.63;2.55;;;10.70;99.90;;;;;;5123370;27;20043;-66
2022/01/03 11:54:47;;;;;;;8.35;2.70;;;10.70;99.90;;;;;;5124099;27;20031;-66
2022/01/03 11:57:40;;;;;;;14.98;2.78;;;10.70;99.90;;;;;;5126273;27;20031;-69
2022/01/03 12:03:50;;;;;;;13.90;2.92;;;10.80;99.90;;;;;;5124873;27;20088;-67
2022/01/03 12:05:51;;;;;;;10.80;2.60;;;10.80;99.90;;;;;;5114130;27;20044;-67
2022/01/03 12:08:40;;;;;;;18.15;3.70;;;11.00;99.90;;;;;;5123223;27;20060;-70
2022/01/03 12:11:21;;;;;;;15.20;4.10;;;11.10;99.90;;;;;;5138928;27;20035;-66
2022/01/03 12:13:51;;;;;;;13.35;2.92;;;11.00;99.90;;;;;;5128984;27;20024;-67
2022/01/03 12:16:18;;;;;;;10.13;3.50;;;11.00;99.90;;;;;;5117778;27;20032;-67
2022/01/03 12:18:59;;;;;;;20.35;3.35;;;11.10;99.90;;;;;;5121641;27;20066;-68
2022/01/03 12:21:50;;;;;;;12.32;2.88;;;11.00;99.90;;;;;;5117294;27;20124;-67
2022/01/03 12:24:27;;;;;;;13.25;3.45;;;11.00;99.90;;;;;;5116581;27;20043;-66
2022/01/03 12:27:14;;;;;;;16.73;3.92;;;11.10;99.90;;;;;;5123957;27;20043;-66
2022/01/03 12:32:30;;;;;;;15.02;3.78;;;11.20;99.90;;;;;;5125052;27;20065;-67
2022/01/03 12:35:15;;;;;;;15.57;3.70;;;11.30;99.90;;;;;;5125557;27;20118;-66
2022/01/03 12:37:50;;;;;;;16.38;3.75;;;11.40;99.90;;;;;;5116135;27;20098;-66
2022/01/03 12:40:18;;;;;;;17.63;2.78;;;11.40;99.90;;;;;;5119625;27;20023;-67
2022/01/03 12:42:52;;;;;;;15.57;2.35;;;11.50;99.90;;;;;;5135388;27;20023;-67
2022/01/03 12:45:30;;;;;;;11.02;2.35;;;11.40;99.90;;;;;;5132919;27;20046;-66
2022/01/03 12:48:11;;;;;;;12.85;2.30;;;11.50;99.90;;;;;;5133447;27;20460;-64
2022/01/03 12:50:42;;;;;;;10.15;2.75;;;11.60;99.90;;;;;;5134029;27;20043;-67
2022/01/03 12:53:29;;;;;;;13.27;3.05;;;11.60;99.90;;;;;;5134899;27;20015;-66
2022/01/03 12:56:01;;;;;;;9.82;3.28;;;11.50;99.90;;;;;;5115471;27;20392;-66
2022/01/03 12:58:26;;;;;;;;;;;11.80;99.90;;;;;;5134148;27;20418;-64
2022/01/03 13:01:05;;;;;;;11.40;2.42;;;12.30;99.90;;;;;;5132625;27;19911;-64
2022/01/03 13:03:43;;;;;;;12.70;2.75;;;12.80;99.90;;;;;;5132398;27;20027;-63
2022/01/03 13:06:12;;;;;;;13.25;2.13;;;13.70;99.90;;;;;;5132901;27;20113;-64
2022/01/03 13:08:59;;;;;;;12.82;2.35;;;14.60;99.90;;;;;;5133755;27;20410;-66
2022/01/03 13:11:46;;;;;;;14.48;3.22;;;15.00;99.90;;;;;;5133758;27;20069;-66
2022/01/03 13:14:23;;;;;;;16.02;3.25;;;15.80;99.90;;;;;;5133482;27;20111;-62
2022/01/03 13:16:49;;;;;;;13.93;2.45;;;16.20;99.90;;;;;;5132387;27;20023;-62
2022/01/03 13:19:22;;;;;;;11.88;2.17;;;16.50;99.90;;;;;;5118236;27;20352;-63